Главная страница
METAR-TAF:

METAR-TAF

Аэропорты :

Норрчёпинг, Швеция

широта: 58-35N, долгота: 016-09E, высота над уровнем моря: 34 м

Текущие метеонаблюдения

Эта сводка был подготовлена 33 минут назад, в 15:20 UTC
Ветер 4 Узел от северо-восточный
Температура 13°C
Влажность 82%
Давление 1004 hPa
Видимость 10 км и более

METAR: ESSP 141520Z AUTO 05004KT 9999 OVC057/// 13/10 Q1004

Время: 17:53 (15:53 UTC)

Прогноз

Эта сводка был подготовлена 7 часа и 23 минут назад, в 08:30 UTC
Прогноз действительный с 14-го 09 UTC до 14-го 13 UTC
Ветер 3 Узел от восточно-северо-восточный
Видимость 10 км и более
Нет облачности ниже 1500 м, и нет кучево-дождевой облачности
Вероятность 40%
С 14-го 12 UTC до 14-го 13 UTC
Отдельные облака на высоте 5000 фута, Кучево-дождевые.
ливневые дожди

TAF: ESSP 140830Z 1409/1413 06003KT CAVOK PROB40 1412/1413 SHRA SCT050CB

Метеонаблюдения и прогнозы для более 4000 аэропортов (сводки METAR и TAF).

Имеющиеся станции представлены на карте желтыми и красными точками.

Чтобы увидеть название станции, наведите на нее мышь.

Затем щелкните, чтобы увидеть метеонаблюдения и метеопрогнозы.

Управление картой: чтобы увеличить масштаб, щелкните зеленые кнопки с черным крестиком; чтобы уменьшить масштаб, щелкните зеленую кнопку с тире; для просмотра соседних карт щелкайте зеленые стрелки.


METAR-TAF: